Time;durP1;ratioP1;P1;durP2;ratioP2;P2;SDS_P1;SDS_P2;PMS_P1;PMS_P2;Temp;Humidity;BMP_temperature;BMP_pressure;BME280_temperature;BME280_humidity;BME280_pressure;Samples;Min_cycle;Max_cycle;Signal;HPM_P1;HPM_P2
2022/01/16 00:00:02;;;;;;;809.03;737.27;;;3.10;99.90;;;;;;4994919;28;20477;-83
2022/01/16 00:05:38;;;;;;;799.73;729.83;;;2.90;99.90;;;;;;4977784;28;20446;-82
2022/01/16 00:08:08;;;;;;;803.73;733.80;;;3.00;99.90;;;;;;4977659;28;20502;-85
2022/01/16 00:11:04;;;;;;;803.67;732.73;;;3.00;99.90;;;;;;4980077;28;20458;-82
2022/01/16 00:16:34;;;;;;;791.73;722.20;;;3.00;99.90;;;;;;4988021;28;20881;-82
2022/01/16 00:19:32;;;;;;;803.87;732.17;;;2.90;99.90;;;;;;4997068;28;20466;-82
2022/01/16 00:22:13;;;;;;;806.23;735.07;;;3.00;99.90;;;;;;4979150;28;21033;-82
2022/01/16 00:24:47;;;;;;;807.40;736.50;;;3.00;99.90;;;;;;4984109;28;20450;-81
2022/01/16 00:27:36;;;;;;;804.87;733.77;;;3.00;99.90;;;;;;4996900;28;20544;-82
2022/01/16 00:30:10;;;;;;;808.70;738.40;;;3.00;99.90;;;;;;4994788;28;20999;-82
2022/01/16 00:33:00;;;;;;;797.57;729.90;;;2.90;99.90;;;;;;4987719;28;20496;-83
2022/01/16 00:35:37;;;;;;;799.20;729.90;;;3.00;99.90;;;;;;4977347;28;20485;-82
2022/01/16 00:38:15;;;;;;;797.03;727.67;;;2.90;99.90;;;;;;4978336;28;20475;-82
2022/01/16 00:40:47;;;;;;;798.77;728.80;;;2.90;99.90;;;;;;4983415;28;20475;-82
2022/01/16 00:43:23;;;;;;;779.70;712.23;;;3.00;99.90;;;;;;4994991;28;20454;-82
2022/01/16 00:46:00;;;;;;;796.53;727.67;;;2.90;99.90;;;;;;4995996;28;20481;-82
2022/01/16 00:48:42;;;;;;;792.13;726.17;;;2.80;99.90;;;;;;4980670;28;21187;-82
2022/01/16 00:51:11;;;;;;;808.20;740.80;;;2.90;99.90;;;;;;4977187;28;20481;-82
2022/01/16 00:53:48;;;;;;;818.37;748.67;;;2.90;99.90;;;;;;4980569;28;20454;-82
2022/01/16 00:56:24;;;;;;;804.10;733.70;;;2.90;99.90;;;;;;4996068;28;20563;-82
2022/01/16 00:58:55;;;;;;;818.60;746.60;;;2.90;99.90;;;;;;4992518;28;20474;-82
2022/01/16 01:01:39;;;;;;;798.60;726.93;;;2.90;99.90;;;;;;4979631;28;20878;-82
2022/01/16 01:04:16;;;;;;;818.30;744.93;;;2.90;99.90;;;;;;4972345;28;20562;-82
2022/01/16 01:06:48;;;;;;;815.90;741.67;;;2.90;99.90;;;;;;4996619;28;20482;-83
2022/01/16 01:09:24;;;;;;;824.30;750.10;;;2.90;99.90;;;;;;4992571;28;20560;-82
2022/01/16 01:11:56;;;;;;;814.50;742.70;;;2.80;99.90;;;;;;4988520;28;20453;-82
2022/01/16 01:17:45;;;;;;;847.17;772.97;;;2.90;99.90;;;;;;4994333;28;20972;-82
2022/01/16 01:20:28;;;;;;;834.70;763.07;;;2.80;99.90;;;;;;4990639;28;20490;-82
2022/01/16 01:23:11;;;;;;;821.10;751.17;;;2.70;99.90;;;;;;4971459;28;20804;-82
2022/01/16 01:25:41;;;;;;;822.30;752.20;;;2.80;99.90;;;;;;4976630;28;20451;-82
2022/01/16 01:28:12;;;;;;;821.50;751.80;;;2.80;99.90;;;;;;4980480;28;20477;-80
2022/01/16 01:30:57;;;;;;;817.00;749.00;;;2.70;99.90;;;;;;4995716;28;20452;-82
2022/01/16 01:33:28;;;;;;;805.67;738.37;;;2.70;99.90;;;;;;4989484;28;20461;-82
2022/01/16 01:35:55;;;;;;;812.67;742.37;;;2.70;99.90;;;;;;4976277;28;20475;-82
2022/01/16 01:38:25;;;;;;;814.63;744.40;;;2.70;99.90;;;;;;4980591;28;20497;-82
2022/01/16 01:40:57;;;;;;;820.47;749.60;;;2.60;99.90;;;;;;4977150;28;20455;-82
2022/01/16 01:52:06;;;;;;;816.17;743.70;;;2.50;99.90;;;;;;4976265;28;20442;-82
2022/01/16 01:54:34;;;;;;;819.87;747.67;;;2.50;99.90;;;;;;4995352;28;20470;-82
2022/01/16 01:57:15;;;;;;;814.87;741.37;;;2.70;99.90;;;;;;4994772;28;20478;-82
2022/01/16 01:59:47;;;;;;;817.77;743.37;;;2.70;99.90;;;;;;4975792;28;20533;-82
2022/01/16 02:02:17;;;;;;;804.70;732.40;;;2.60;99.90;;;;;;4977394;28;20455;-82
2022/01/16 02:04:45;;;;;;;816.97;741.80;;;2.60;99.90;;;;;;4995561;28;20458;-82
2022/01/16 02:07:25;;;;;;;817.17;742.07;;;2.70;99.90;;;;;;4994696;28;20516;-82
2022/01/16 02:09:56;;;;;;;806.70;733.23;;;2.70;99.90;;;;;;4975700;28;20475;-82
2022/01/16 02:12:43;;;;;;;815.37;744.20;;;2.70;99.90;;;;;;4977413;28;20498;-82
2022/01/16 02:15:34;;;;;;;829.17;757.03;;;2.80;99.90;;;;;;4995002;28;20920;-81
2022/01/16 02:32:48;;;;;;;800.53;737.53;;;2.80;99.90;;;;;;4995067;28;20508;-82
2022/01/16 02:35:27;;;;;;;803.17;740.27;;;2.90;99.90;;;;;;4985057;28;20882;-84
2022/01/16 02:41:05;;;;;;;793.23;730.30;;;2.80;99.90;;;;;;4964353;28;20985;-82
2022/01/16 02:43:35;;;;;;;788.80;728.37;;;2.80;99.90;;;;;;4973078;28;20458;-82
2022/01/16 02:48:50;;;;;;;780.47;722.50;;;2.90;99.90;;;;;;4985072;28;20473;-82
2022/01/16 02:51:28;;;;;;;776.87;718.30;;;2.90;99.90;;;;;;4997702;28;20462;-82
2022/01/16 02:54:20;;;;;;;786.80;729.90;;;2.90;99.90;;;;;;4998481;28;20488;-82
2022/01/16 02:56:48;;;;;;;780.20;724.27;;;2.90;99.90;;;;;;4997111;28;20500;-82
2022/01/16 02:59:17;;;;;;;764.67;709.93;;;2.90;99.90;;;;;;4997264;28;20529;-82
2022/01/16 03:01:45;;;;;;;757.50;704.87;;;2.90;99.90;;;;;;4989232;28;20971;-82
2022/01/16 03:04:16;;;;;;;767.73;715.10;;;3.00;99.90;;;;;;4983638;28;20478;-82
2022/01/16 03:06:43;;;;;;;754.40;703.03;;;2.90;99.90;;;;;;4999020;28;20505;-82
2022/01/16 03:09:13;;;;;;;752.43;701.27;;;2.90;99.90;;;;;;4994414;28;20986;-82
2022/01/16 03:12:01;;;;;;;738.93;689.90;;;2.90;99.90;;;;;;4978937;28;20466;-83
2022/01/16 03:15:04;;;;;;;734.73;686.57;;;3.00;99.90;;;;;;4984407;28;20468;-82
2022/01/16 03:17:40;;;;;;;734.77;686.07;;;2.90;99.90;;;;;;4990078;28;20778;-82
2022/01/16 03:23:09;;;;;;;722.30;676.87;;;2.90;99.90;;;;;;4996815;28;20512;-82
2022/01/16 03:25:41;;;;;;;731.80;686.50;;;2.90;99.90;;;;;;4980395;28;20852;-82
2022/01/16 03:28:21;;;;;;;726.87;682.20;;;2.90;99.90;;;;;;4980703;28;20500;-85
2022/01/16 03:30:58;;;;;;;714.07;670.63;;;3.00;99.90;;;;;;4980572;28;20829;-82
2022/01/16 03:33:37;;;;;;;709.97;667.60;;;3.00;99.90;;;;;;4998236;28;20449;-82
2022/01/16 03:36:17;;;;;;;;;;;;;;;;;;;;;
2022/01/16 03:38:47;;;;;;;707.60;665.70;;;2.90;99.90;;;;;;4978164;28;20474;-82
2022/01/16 03:41:29;;;;;;;718.47;675.47;;;3.00;99.90;;;;;;4997309;28;20524;-82
2022/01/16 03:44:08;;;;;;;713.47;670.30;;;2.90;99.90;;;;;;4996560;28;20462;-82
2022/01/16 03:46:41;;;;;;;704.90;661.73;;;2.90;99.90;;;;;;4979031;28;20868;-82
2022/01/16 03:49:10;;;;;;;704.50;661.53;;;2.90;99.90;;;;;;4980533;28;20467;-82
2022/01/16 03:51:42;;;;;;;726.97;680.17;;;3.00;99.90;;;;;;4998226;28;20482;-82
2022/01/16 03:54:26;;;;;;;719.23;674.03;;;2.90;99.90;;;;;;4995792;28;20450;-82
2022/01/16 03:57:11;;;;;;;723.83;677.50;;;2.90;99.90;;;;;;4977369;28;20487;-83
2022/01/16 04:00:07;;;;;;;;;;;;;;;;;;;;;
2022/01/16 04:02:34;;;;;;;734.43;684.47;;;3.00;99.90;;;;;;4997335;28;20454;-82
2022/01/16 04:05:06;;;;;;;725.70;677.57;;;3.00;99.90;;;;;;4981096;28;20454;-82
2022/01/16 04:07:38;;;;;;;750.87;699.77;;;3.00;99.90;;;;;;4977628;28;20459;-82
2022/01/16 04:10:21;;;;;;;749.47;697.70;;;3.00;99.90;;;;;;4995767;28;20512;-83
2022/01/16 04:13:08;;;;;;;758.13;705.40;;;3.00;99.90;;;;;;4997841;28;20954;-82
2022/01/16 04:16:14;;;;;;;750.93;697.97;;;3.20;99.90;;;;;;4990690;28;20467;-82
2022/01/16 04:19:05;;;;;;;747.30;695.70;;;3.10;99.90;;;;;;4984176;28;20820;-82
2022/01/16 04:21:36;;;;;;;752.47;699.50;;;3.10;99.90;;;;;;4991980;28;20512;-81
2022/01/16 04:27:06;;;;;;;762.20;709.40;;;3.20;99.90;;;;;;4960979;28;20447;-83
2022/01/16 04:29:33;;;;;;;759.93;706.60;;;3.10;99.90;;;;;;4989874;28;20477;-81
2022/01/16 04:32:33;;;;;;;759.73;705.40;;;3.20;99.90;;;;;;5005439;28;20837;-83
2022/01/16 04:35:16;;;;;;;762.33;708.47;;;3.20;99.90;;;;;;5001485;28;20446;-83
2022/01/16 04:37:46;;;;;;;765.87;712.57;;;3.20;99.90;;;;;;4994872;28;20454;-83
2022/01/16 04:40:27;;;;;;;764.67;711.40;;;3.30;99.90;;;;;;4982152;28;20526;-83
2022/01/16 04:45:52;;;;;;;748.57;697.07;;;3.30;99.90;;;;;;4990646;28;20446;-83
2022/01/16 04:49:06;;;;;;;748.57;698.40;;;3.30;99.90;;;;;;4992608;28;20475;-83
2022/01/16 04:52:01;;;;;;;748.27;697.53;;;3.30;99.90;;;;;;4981032;28;20446;-84
2022/01/16 04:54:44;;;;;;;721.33;673.90;;;3.40;99.90;;;;;;5001768;28;20454;-80
2022/01/16 04:57:16;;;;;;;728.27;680.30;;;3.30;99.90;;;;;;4980985;28;20479;-84
2022/01/16 04:59:59;;;;;;;721.20;674.47;;;3.40;99.90;;;;;;4991538;28;20474;-84
2022/01/16 05:05:52;;;;;;;679.63;637.87;;;3.40;99.90;;;;;;4993571;28;20537;-83
2022/01/16 05:17:27;;;;;;;674.50;635.10;;;3.50;99.90;;;;;;4989357;28;20987;-83
2022/01/16 05:23:34;;;;;;;647.00;611.00;;;3.50;99.90;;;;;;4981289;28;20438;-83
2022/01/16 05:26:25;;;;;;;643.63;606.90;;;3.50;99.90;;;;;;4982526;28;20446;-83
2022/01/16 05:29:15;;;;;;;651.13;614.73;;;3.60;99.90;;;;;;4984918;28;20474;-83
2022/01/16 05:31:54;;;;;;;627.27;593.07;;;3.50;99.90;;;;;;4985566;28;20447;-83
2022/01/16 05:34:51;;;;;;;609.13;576.20;;;3.60;99.90;;;;;;4983172;28;20481;-83
2022/01/16 05:37:38;;;;;;;616.53;580.17;;;3.60;99.90;;;;;;4996789;28;20858;-84
2022/01/16 05:40:55;;;;;;;577.93;547.50;;;3.60;99.90;;;;;;4992193;28;20538;-84
2022/01/16 05:43:41;;;;;;;583.77;552.60;;;3.60;99.90;;;;;;4966387;28;20459;-83
2022/01/16 05:46:26;;;;;;;585.20;554.77;;;3.60;99.90;;;;;;4981538;28;20443;-83
2022/01/16 05:54:38;;;;;;;551.10;522.53;;;3.60;99.90;;;;;;4985843;28;20462;-83
2022/01/16 05:57:06;;;;;;;528.07;501.40;;;3.60;99.90;;;;;;4986209;28;20554;-83
2022/01/16 05:59:35;;;;;;;540.27;513.10;;;3.60;99.90;;;;;;4990605;28;20476;-83
2022/01/16 06:02:01;;;;;;;533.50;505.70;;;3.50;99.90;;;;;;4986805;28;21022;-83
2022/01/16 06:04:28;;;;;;;530.73;503.50;;;3.80;99.90;;;;;;4993266;28;20460;-83
2022/01/16 06:06:55;;;;;;;515.03;488.97;;;3.60;99.90;;;;;;4989663;28;20956;-83
2022/01/16 06:09:22;;;;;;;483.60;459.70;;;3.70;99.90;;;;;;4996019;28;20545;-83
2022/01/16 06:11:49;;;;;;;495.93;471.03;;;3.60;99.90;;;;;;4981531;28;20837;-84
2022/01/16 06:14:16;;;;;;;476.33;453.30;;;3.80;99.90;;;;;;4979244;28;20519;-83
2022/01/16 06:16:44;;;;;;;491.77;466.17;;;3.70;99.90;;;;;;4979563;28;21152;-84
2022/01/16 06:19:11;;;;;;;489.33;465.10;;;3.70;99.90;;;;;;4990335;28;20501;-83
2022/01/16 06:21:38;;;;;;;496.70;470.77;;;3.70;99.90;;;;;;4993553;28;20509;-83
2022/01/16 06:24:14;;;;;;;515.60;488.60;;;3.70;99.90;;;;;;5000078;28;20449;-84
2022/01/16 06:26:41;;;;;;;512.10;485.87;;;3.70;99.90;;;;;;4989724;28;20452;-83
2022/01/16 06:29:08;;;;;;;498.87;474.17;;;3.70;99.90;;;;;;5003955;28;21063;-82
2022/01/16 06:31:43;;;;;;;510.13;484.23;;;3.70;99.90;;;;;;4995902;28;20462;-82
2022/01/16 06:34:12;;;;;;;519.83;493.47;;;3.70;99.90;;;;;;4989926;28;20920;-82
2022/01/16 06:36:40;;;;;;;524.17;497.13;;;3.60;99.90;;;;;;5002342;28;20477;-82
2022/01/16 06:39:10;;;;;;;539.00;511.57;;;3.60;99.90;;;;;;4993467;28;20496;-81
2022/01/16 06:41:37;;;;;;;536.77;508.87;;;3.70;99.90;;;;;;4984634;28;20451;-82
2022/01/16 06:44:05;;;;;;;540.33;512.63;;;3.70;99.90;;;;;;4982869;28;20458;-82
2022/01/16 06:46:32;;;;;;;535.20;507.40;;;3.80;99.90;;;;;;4991487;28;20454;-83
2022/01/16 06:48:59;;;;;;;551.13;522.27;;;3.80;99.90;;;;;;4995167;28;20466;-83
2022/01/16 06:51:27;;;;;;;524.47;496.77;;;3.80;99.90;;;;;;4991832;28;20482;-83
2022/01/16 06:53:55;;;;;;;501.10;475.40;;;3.80;99.90;;;;;;4992757;28;20453;-84
2022/01/16 06:56:25;;;;;;;497.63;471.53;;;3.80;99.90;;;;;;5013249;28;20467;-84
2022/01/16 06:58:54;;;;;;;493.70;467.80;;;3.80;99.90;;;;;;4987793;28;20891;-83
2022/01/16 07:01:41;;;;;;;493.23;467.90;;;3.80;99.90;;;;;;4991277;28;20485;-83
2022/01/16 07:04:16;;;;;;;493.77;468.77;;;3.80;99.90;;;;;;4995456;28;20588;-82
2022/01/16 07:09:55;;;;;;;465.37;440.90;;;3.80;99.90;;;;;;4985722;28;20499;-83
2022/01/16 07:12:46;;;;;;;476.50;451.47;;;3.90;99.90;;;;;;4988395;28;20481;-82
2022/01/16 07:15:51;;;;;;;468.57;444.17;;;3.90;99.90;;;;;;4995729;28;20461;-83
2022/01/16 07:18:28;;;;;;;477.80;453.13;;;4.00;99.90;;;;;;4986040;28;20532;-83
2022/01/16 07:21:02;;;;;;;495.87;468.87;;;4.00;99.90;;;;;;4986445;28;20801;-82
2022/01/16 07:46:45;;;;;;;466.90;443.30;;;4.00;99.90;;;;;;4954846;28;20455;-85
2022/01/16 07:50:02;;;;;;;484.20;458.57;;;4.00;99.90;;;;;;4903802;29;20474;-83
2022/01/16 07:52:49;;;;;;;474.77;450.93;;;4.00;99.90;;;;;;4965406;28;20518;-84
2022/01/16 07:59:13;;;;;;;472.43;447.53;;;4.10;99.90;;;;;;4983466;28;20494;-85
2022/01/16 08:05:00;;;;;;;464.10;440.10;;;4.10;99.90;;;;;;4990457;28;20460;-84
2022/01/16 08:50:02;;;;;;;364.65;346.65;;;4.40;99.90;;;;;;4989035;28;20448;-82
2022/01/16 08:56:01;;;;;;;306.70;290.60;;;4.60;99.90;;;;;;4986336;28;20832;-82
2022/01/16 08:58:55;;;;;;;270.80;255.83;;;4.40;99.90;;;;;;4985537;28;20482;-81
2022/01/16 09:04:56;;;;;;;204.80;192.73;;;4.50;99.90;;;;;;4920761;28;21101;-82
2022/01/16 09:07:47;;;;;;;220.13;207.20;;;4.40;99.90;;;;;;4985996;28;20450;-82
2022/01/16 09:17:10;;;;;;;159.90;149.73;;;4.60;99.90;;;;;;4949600;28;20565;-81
2022/01/16 09:19:46;;;;;;;158.67;146.87;;;4.60;99.90;;;;;;4970767;28;20490;-82
2022/01/16 09:22:36;;;;;;;154.00;142.87;;;4.60;99.90;;;;;;4983047;28;20454;-82
2022/01/16 09:29:03;;;;;;;132.10;121.93;;;4.80;99.90;;;;;;4933690;28;20481;-82
2022/01/16 09:31:48;;;;;;;128.70;119.00;;;4.90;99.90;;;;;;4977748;28;20535;-87
2022/01/16 09:40:47;;;;;;;105.47;97.73;;;5.00;99.90;;;;;;4967918;28;20459;-85
2022/01/16 09:43:27;;;;;;;119.30;110.13;;;5.00;99.90;;;;;;4990233;28;20451;-81
2022/01/16 09:46:07;;;;;;;84.77;76.60;;;4.90;99.90;;;;;;4981267;28;20476;-82
2022/01/16 09:56:26;;;;;;;;;;;;;;;;;;;;;
2022/01/16 09:59:22;;;;;;;;;;;;;;;;;;;;;
2022/01/16 10:02:17;;;;;;;82.63;75.87;;;5.20;99.90;;;;;;4861228;29;20884;-83
2022/01/16 10:04:59;;;;;;;93.10;84.70;;;5.30;99.90;;;;;;4981087;28;20462;-82
2022/01/16 10:07:53;;;;;;;;;;;;;;;;;;;;;
2022/01/16 10:11:24;;;;;;;120.83;111.53;;;5.20;99.90;;;;;;4993327;28;20541;-82
2022/01/16 10:14:13;;;;;;;132.13;122.83;;;5.30;99.90;;;;;;4984389;28;20825;-84
2022/01/16 10:16:59;;;;;;;147.63;137.47;;;5.40;99.90;;;;;;4981388;28;20451;-82
2022/01/16 10:19:28;;;;;;;132.57;122.93;;;5.40;99.90;;;;;;4988607;28;20474;-82
2022/01/16 10:22:12;;;;;;;121.37;111.87;;;5.40;99.90;;;;;;4988655;28;20450;-83
2022/01/16 10:24:53;;;;;;;154.83;143.93;;;5.40;99.90;;;;;;4990662;28;20454;-82
2022/01/16 10:28:05;;;;;;;145.63;134.27;;;5.40;99.90;;;;;;4984176;28;20493;-82
2022/01/16 10:43:41;;;;;;;129.40;119.00;;;5.40;99.90;;;;;;4965526;28;20465;-82
2022/01/16 10:52:56;;;;;;;119.07;108.97;;;5.50;99.90;;;;;;4955513;28;20455;-82
2022/01/16 10:56:03;;;;;;;116.20;105.60;;;5.60;99.90;;;;;;4994463;28;20557;-82
2022/01/16 10:58:41;;;;;;;125.93;115.47;;;5.60;99.90;;;;;;4991214;28;20497;-82
2022/01/16 11:04:50;;;;;;;101.97;92.00;;;5.70;99.90;;;;;;4982886;28;20836;-82
2022/01/16 11:17:13;;;;;;;103.93;92.93;;;5.80;99.90;;;;;;4914490;29;20457;-82
2022/01/16 11:19:44;;;;;;;82.50;74.90;;;5.80;99.90;;;;;;4939974;28;20561;-82
2022/01/16 11:28:39;;;;;;;;;;;;;;;;;;;;;
2022/01/16 11:38:21;;;;;;;;;;;;;;;;;;;;;
2022/01/16 11:41:07;;;;;;;80.50;71.97;;;5.80;99.90;;;;;;4943042;29;20915;-83
2022/01/16 11:44:10;;;;;;;67.90;60.90;;;5.90;99.90;;;;;;4944001;29;20457;-85
2022/01/16 11:50:32;;;;;;;;;;;;;;;;;;;;;
2022/01/16 11:53:33;;;;;;;58.37;47.77;;;6.30;98.40;;;;;;4989259;28;20475;-84
2022/01/16 12:00:00;;;;;;;;;;;;;;;;;;;;;
2022/01/16 12:02:58;;;;;;;55.63;32.77;;;6.70;95.20;;;;;;4921483;28;20534;-84
2022/01/16 12:05:55;;;;;;;47.30;24.67;;;6.70;95.00;;;;;;4959110;28;20550;-85
2022/01/16 12:14:59;;;;;;;51.37;32.13;;;6.30;95.60;;;;;;5031099;28;21163;-81
2022/01/16 12:21:18;;;;;;;52.10;28.40;;;6.40;96.00;;;;;;5036377;28;20539;-81
2022/01/16 12:31:15;;;;;;;47.90;27.53;;;6.50;95.70;;;;;;5016058;28;20894;-82
2022/01/16 12:41:17;;;;;;;;;;;;;;;;;;;;;
2022/01/16 12:54:26;;;;;;;;;;;;;;;;;;;;;
2022/01/16 13:00:59;;;;;;;51.10;39.47;;;5.60;97.30;;;;;;4992880;28;20481;-83
2022/01/16 13:04:13;;;;;;;;;;;;;;;;;;;;;
2022/01/16 13:11:03;;;;;;;62.17;51.90;;;6.00;96.50;;;;;;4963567;28;20848;-82
2022/01/16 13:14:06;;;;;;;51.27;38.67;;;6.20;96.80;;;;;;4954579;28;20994;-82
2022/01/16 13:17:02;;;;;;;60.50;45.00;;;6.20;95.60;;;;;;4937240;29;20455;-82
2022/01/16 13:19:38;;;;;;;49.00;38.57;;;6.20;96.30;;;;;;5029579;28;20484;-83
2022/01/16 13:22:39;;;;;;;;;;;;;;;;;;;;;
2022/01/16 13:25:22;;;;;;;44.60;37.70;;;6.10;95.90;;;;;;5033769;28;20533;-82
2022/01/16 13:28:15;;;;;;;49.50;40.50;;;6.20;96.60;;;;;;5037081;28;20456;-84
2022/01/16 13:30:48;;;;;;;48.90;35.70;;;6.20;96.10;;;;;;5036163;28;20456;-82
2022/01/16 13:33:43;;;;;;;49.03;40.13;;;6.10;95.80;;;;;;5037007;28;20448;-83
2022/01/16 13:36:28;;;;;;;35.67;30.20;;;6.20;95.80;;;;;;5036728;28;20763;-82
2022/01/16 13:39:52;;;;;;;44.40;35.83;;;6.20;95.50;;;;;;5035442;28;20568;-85
2022/01/16 13:42:51;;;;;;;45.57;40.90;;;6.20;96.00;;;;;;5037608;28;20448;-82
2022/01/16 13:45:37;;;;;;;41.97;36.80;;;6.20;96.30;;;;;;5036502;28;20448;-83
2022/01/16 13:51:30;;;;;;;49.90;44.50;;;6.00;96.50;;;;;;5035856;28;20492;-83
2022/01/16 13:54:49;;;;;;;72.63;66.63;;;6.00;97.10;;;;;;5036943;28;20448;-83
2022/01/16 13:57:35;;;;;;;59.43;54.70;;;6.00;97.80;;;;;;5013032;28;20465;-85
2022/01/16 14:03:26;;;;;;;73.63;67.73;;;5.80;97.60;;;;;;5034355;28;20456;-83
2022/01/16 14:09:22;;;;;;;84.23;78.33;;;5.70;98.40;;;;;;5029509;28;20522;-85
2022/01/16 14:12:09;;;;;;;130.57;122.27;;;5.70;98.70;;;;;;5016489;28;20524;-82
2022/01/16 14:17:44;;;;;;;113.23;107.20;;;5.50;99.30;;;;;;5034701;28;20510;-82
2022/01/16 14:23:53;;;;;;;166.07;157.20;;;5.40;99.60;;;;;;5005665;28;20460;-82
2022/01/16 14:26:22;;;;;;;255.07;243.80;;;5.50;99.90;;;;;;5014990;28;20464;-83
2022/01/16 14:29:17;;;;;;;246.83;235.73;;;5.30;99.90;;;;;;5020974;28;20567;-82
2022/01/16 14:34:54;;;;;;;334.90;320.67;;;5.40;99.90;;;;;;5035474;28;20462;-86
2022/01/16 14:41:12;;;;;;;294.73;281.83;;;5.40;99.90;;;;;;5029518;28;20448;-83
2022/01/16 14:47:06;;;;;;;306.30;293.30;;;5.30;99.90;;;;;;5031697;28;20459;-85
2022/01/16 14:52:53;;;;;;;342.43;328.50;;;5.20;99.90;;;;;;5032342;28;20444;-82
2022/01/16 14:55:58;;;;;;;;;;;;;;;;;;;;;
2022/01/16 15:05:10;;;;;;;337.40;323.90;;;5.30;99.90;;;;;;5038697;28;20986;-86
2022/01/16 15:14:10;;;;;;;342.60;328.70;;;5.20;99.90;;;;;;5038257;28;20543;-82
2022/01/16 15:19:56;;;;;;;366.23;351.43;;;5.30;99.90;;;;;;5026347;28;20513;-82
2022/01/16 15:25:56;;;;;;;336.20;323.80;;;5.10;99.90;;;;;;5038313;28;20456;-83
2022/01/16 15:28:56;;;;;;;386.37;370.57;;;5.20;99.90;;;;;;5038778;28;20470;-82
2022/01/16 15:37:59;;;;;;;441.50;422.83;;;5.20;99.90;;;;;;5034650;28;20456;-82
2022/01/16 15:46:56;;;;;;;;;;;;;;;;;;;;;
2022/01/16 15:53:01;;;;;;;510.17;488.87;;;5.10;99.90;;;;;;5037827;28;20894;-83
2022/01/16 15:55:38;;;;;;;515.73;492.53;;;4.90;99.90;;;;;;5038868;28;20456;-82
2022/01/16 15:58:31;;;;;;;514.33;492.10;;;4.90;99.90;;;;;;5039371;28;20850;-84
2022/01/16 16:10:44;;;;;;;613.57;583.20;;;4.90;99.90;;;;;;5028819;28;20490;-82
2022/01/16 16:13:27;;;;;;;631.13;598.67;;;4.90;99.90;;;;;;5027242;28;20540;-83
2022/01/16 16:16:08;;;;;;;639.80;606.23;;;4.90;99.90;;;;;;5039414;28;20971;-83
2022/01/16 16:18:55;;;;;;;662.43;627.13;;;4.90;99.90;;;;;;5038277;28;20472;-82
2022/01/16 16:21:31;;;;;;;662.67;626.87;;;4.90;99.90;;;;;;5038534;28;20480;-82
2022/01/16 16:24:03;;;;;;;659.07;623.73;;;5.00;99.90;;;;;;5038074;28;20455;-82
2022/01/16 16:30:25;;;;;;;675.57;637.47;;;4.90;99.90;;;;;;5037542;28;20472;-82
2022/01/16 16:33:13;;;;;;;689.63;649.50;;;4.90;99.90;;;;;;5037049;28;20830;-83
2022/01/16 16:36:19;;;;;;;677.77;638.97;;;5.00;99.90;;;;;;5017424;28;20972;-82
2022/01/16 16:39:14;;;;;;;695.67;652.63;;;4.80;99.90;;;;;;5018172;28;20559;-82
2022/01/16 16:42:16;;;;;;;698.20;654.97;;;4.90;99.90;;;;;;5036641;28;20466;-82
2022/01/16 16:44:48;;;;;;;688.63;648.23;;;4.90;99.90;;;;;;5038670;28;20448;-84
2022/01/16 16:47:22;;;;;;;689.73;649.83;;;5.00;99.90;;;;;;5039411;28;20453;-80
2022/01/16 16:49:56;;;;;;;704.67;661.77;;;4.90;99.90;;;;;;5037532;28;20832;-83
2022/01/16 16:52:29;;;;;;;701.53;656.80;;;5.00;99.90;;;;;;5036508;28;20448;-82
2022/01/16 16:55:27;;;;;;;;;;;;;;;;;;;;;
2022/01/16 17:04:14;;;;;;;681.83;641.43;;;5.00;99.90;;;;;;4969249;28;21053;-81
2022/01/16 17:06:52;;;;;;;660.30;622.67;;;4.90;99.90;;;;;;5028426;28;20452;-82
2022/01/16 17:09:21;;;;;;;674.97;635.70;;;5.00;99.90;;;;;;5035443;28;20476;-82
2022/01/16 17:11:49;;;;;;;691.00;649.70;;;5.00;99.90;;;;;;5034941;28;20466;-82
2022/01/16 17:14:18;;;;;;;681.13;639.50;;;5.00;99.90;;;;;;5035324;28;20458;-81
2022/01/16 17:16:50;;;;;;;675.53;636.03;;;5.00;99.90;;;;;;5035558;28;20878;-82
2022/01/16 17:19:33;;;;;;;686.90;644.93;;;5.00;99.90;;;;;;5035183;28;20529;-82
2022/01/16 17:22:04;;;;;;;695.10;652.87;;;5.00;99.90;;;;;;5034979;28;20983;-82
2022/01/16 17:24:34;;;;;;;703.03;660.37;;;5.00;99.90;;;;;;5035605;28;20448;-83
2022/01/16 17:27:06;;;;;;;692.73;649.77;;;4.90;99.90;;;;;;5035596;28;20452;-83
2022/01/16 17:29:46;;;;;;;690.60;649.10;;;5.00;99.90;;;;;;5035561;28;20619;-82
2022/01/16 17:32:21;;;;;;;677.97;637.77;;;5.00;99.90;;;;;;5036761;28;20463;-82
2022/01/16 17:35:18;;;;;;;687.27;645.53;;;5.00;99.90;;;;;;5038959;28;20445;-82
2022/01/16 17:37:56;;;;;;;689.40;646.87;;;5.00;99.90;;;;;;5019797;28;20464;-82
2022/01/16 17:40:30;;;;;;;656.40;620.07;;;4.90;99.90;;;;;;5037177;28;20495;-83
2022/01/16 17:43:32;;;;;;;679.73;638.90;;;5.00;99.90;;;;;;5038310;28;20436;-83
2022/01/16 17:46:01;;;;;;;684.77;642.37;;;5.00;99.90;;;;;;4952622;28;20455;-82
2022/01/16 17:48:31;;;;;;;665.53;625.27;;;5.00;99.90;;;;;;4956931;28;20993;-85
2022/01/16 17:50:58;;;;;;;666.70;627.70;;;5.00;99.90;;;;;;5007719;28;21167;-81
2022/01/16 17:53:26;;;;;;;665.20;626.40;;;5.10;99.90;;;;;;5034757;28;20448;-82
2022/01/16 17:55:53;;;;;;;655.47;617.00;;;5.00;99.90;;;;;;5035857;28;20811;-82
2022/01/16 17:58:20;;;;;;;652.07;614.30;;;5.00;99.90;;;;;;5035887;28;20468;-82
2022/01/16 18:00:47;;;;;;;637.77;602.63;;;5.10;99.90;;;;;;5035562;28;20878;-82
2022/01/16 18:03:15;;;;;;;627.37;591.37;;;5.10;99.90;;;;;;5035735;28;20825;-82
2022/01/16 18:05:42;;;;;;;621.83;586.50;;;5.10;99.90;;;;;;5035060;28;20487;-82
2022/01/16 18:08:09;;;;;;;637.53;599.60;;;5.10;99.90;;;;;;5034357;28;20472;-81
2022/01/16 18:10:35;;;;;;;635.93;597.73;;;5.00;99.90;;;;;;5034631;28;20539;-81
2022/01/16 18:13:06;;;;;;;639.17;598.23;;;5.00;99.90;;;;;;5034535;28;20940;-82
2022/01/16 18:15:34;;;;;;;635.67;596.97;;;5.00;99.90;;;;;;5032364;28;20440;-81
2022/01/16 18:18:01;;;;;;;643.10;602.47;;;5.00;99.90;;;;;;5033472;28;20496;-81
2022/01/16 18:20:29;;;;;;;622.90;586.90;;;5.00;99.90;;;;;;5032720;28;20476;-86
2022/01/16 18:22:55;;;;;;;666.43;623.30;;;5.00;99.90;;;;;;5033663;28;20459;-81
2022/01/16 18:25:22;;;;;;;638.13;597.67;;;4.90;99.90;;;;;;5033282;28;20456;-80
2022/01/16 18:27:49;;;;;;;654.50;614.30;;;5.00;99.90;;;;;;5033557;28;20444;-85
2022/01/16 18:30:16;;;;;;;658.90;617.57;;;5.00;99.90;;;;;;5032817;28;20448;-85
2022/01/16 18:32:43;;;;;;;638.47;602.00;;;5.00;99.90;;;;;;5033227;28;20467;-82
2022/01/16 18:35:14;;;;;;;667.00;623.43;;;5.00;99.90;;;;;;5033510;28;20456;-80
2022/01/16 18:37:42;;;;;;;663.60;621.70;;;5.00;99.90;;;;;;5032713;28;20459;-84
2022/01/16 18:40:10;;;;;;;671.97;629.57;;;4.90;99.90;;;;;;5033576;28;20476;-83
2022/01/16 18:42:37;;;;;;;652.87;612.73;;;5.00;99.90;;;;;;5032758;28;20448;-81
2022/01/16 18:45:07;;;;;;;670.50;626.37;;;5.00;99.90;;;;;;5033538;28;20463;-81
2022/01/16 18:47:37;;;;;;;691.67;646.13;;;5.00;99.90;;;;;;5032410;28;20452;-81
2022/01/16 18:50:07;;;;;;;667.47;624.30;;;5.00;99.90;;;;;;5031751;28;20444;-81
2022/01/16 18:52:34;;;;;;;682.67;639.10;;;5.00;99.90;;;;;;5033703;28;20462;-81
2022/01/16 18:55:04;;;;;;;707.93;663.43;;;5.00;99.90;;;;;;5032420;28;20528;-81
2022/01/16 18:57:33;;;;;;;711.23;664.90;;;5.00;99.90;;;;;;5033722;28;20495;-80
2022/01/16 19:00:00;;;;;;;708.43;662.00;;;5.10;99.90;;;;;;5032751;28;20504;-81
2022/01/16 19:02:26;;;;;;;711.07;665.03;;;5.00;99.90;;;;;;5033720;28;20448;-83
2022/01/16 19:04:53;;;;;;;707.97;662.30;;;4.90;99.90;;;;;;5033079;28;20452;-81
2022/01/16 19:07:20;;;;;;;712.53;666.70;;;5.00;99.90;;;;;;5033783;28;20456;-82
2022/01/16 19:09:47;;;;;;;722.00;675.40;;;5.10;99.90;;;;;;5033498;28;20934;-83
2022/01/16 19:12:15;;;;;;;716.50;670.30;;;5.00;99.90;;;;;;5033685;28;20817;-82
2022/01/16 19:14:44;;;;;;;706.07;661.97;;;5.00;99.90;;;;;;5033724;28;20448;-81
2022/01/16 19:17:11;;;;;;;711.77;665.77;;;5.00;99.90;;;;;;5032961;28;20456;-84
2022/01/16 19:19:38;;;;;;;721.27;674.90;;;5.00;99.90;;;;;;5033260;28;20476;-81
2022/01/16 19:22:05;;;;;;;720.07;671.87;;;5.00;99.90;;;;;;5033575;28;20455;-81
2022/01/16 19:24:32;;;;;;;721.27;673.30;;;5.00;99.90;;;;;;5034679;28;20509;-81
2022/01/16 19:27:00;;;;;;;725.37;677.10;;;5.00;99.90;;;;;;5034502;28;20448;-81
2022/01/16 19:29:28;;;;;;;732.20;683.70;;;4.90;99.90;;;;;;5037170;28;20533;-82
2022/01/16 19:31:55;;;;;;;730.50;682.10;;;5.00;99.90;;;;;;5037176;28;20474;-82